sensor_id;sensor_type;location;lat;lon;timestamp;P1;durP1;ratioP1;P2;durP2;ratioP2
17570;SDS011;8903;52.220;20.978;2023-04-07T00:00:34;70.10;;;31.03;;
17570;SDS011;8903;52.220;20.978;2023-04-07T00:03:01;69.40;;;31.33;;
17570;SDS011;8903;52.220;20.978;2023-04-07T00:05:31;58.43;;;29.13;;
17570;SDS011;8903;52.220;20.978;2023-04-07T00:07:59;62.70;;;29.73;;
17570;SDS011;8903;52.220;20.978;2023-04-07T00:10:26;57.67;;;29.87;;
17570;SDS011;8903;52.220;20.978;2023-04-07T00:12:53;56.80;;;29.27;;
17570;SDS011;8903;52.220;20.978;2023-04-07T00:15:20;62.00;;;30.30;;
17570;SDS011;8903;52.220;20.978;2023-04-07T00:17:47;59.13;;;31.57;;
17570;SDS011;8903;52.220;20.978;2023-04-07T00:20:14;64.70;;;31.90;;
17570;SDS011;8903;52.220;20.978;2023-04-07T00:22:41;60.83;;;32.07;;
17570;SDS011;8903;52.220;20.978;2023-04-07T00:25:09;68.67;;;34.13;;
17570;SDS011;8903;52.220;20.978;2023-04-07T00:27:36;60.80;;;30.07;;
17570;SDS011;8903;52.220;20.978;2023-04-07T00:30:04;70.73;;;32.70;;
17570;SDS011;8903;52.220;20.978;2023-04-07T00:32:31;62.33;;;32.40;;
17570;SDS011;8903;52.220;20.978;2023-04-07T00:34:58;66.17;;;32.77;;
17570;SDS011;8903;52.220;20.978;2023-04-07T00:37:25;64.20;;;31.67;;
17570;SDS011;8903;52.220;20.978;2023-04-07T00:39:53;62.03;;;30.77;;
17570;SDS011;8903;52.220;20.978;2023-04-07T00:42:22;62.67;;;31.20;;
17570;SDS011;8903;52.220;20.978;2023-04-07T00:44:49;60.70;;;30.83;;
17570;SDS011;8903;52.220;20.978;2023-04-07T00:47:16;60.93;;;30.83;;
17570;SDS011;8903;52.220;20.978;2023-04-07T00:49:43;63.67;;;33.03;;
17570;SDS011;8903;52.220;20.978;2023-04-07T00:52:10;70.27;;;32.17;;
17570;SDS011;8903;52.220;20.978;2023-04-07T00:54:38;63.57;;;30.40;;
17570;SDS011;8903;52.220;20.978;2023-04-07T00:57:07;65.00;;;32.57;;
17570;SDS011;8903;52.220;20.978;2023-04-07T00:59:36;60.70;;;30.87;;
17570;SDS011;8903;52.220;20.978;2023-04-07T01:02:04;65.47;;;33.90;;
17570;SDS011;8903;52.220;20.978;2023-04-07T01:04:38;61.30;;;31.90;;
17570;SDS011;8903;52.220;20.978;2023-04-07T01:07:10;65.03;;;30.27;;
17570;SDS011;8903;52.220;20.978;2023-04-07T01:09:53;67.83;;;32.10;;
17570;SDS011;8903;52.220;20.978;2023-04-07T01:12:28;64.90;;;30.40;;
17570;SDS011;8903;52.220;20.978;2023-04-07T01:15:05;68.93;;;32.63;;
17570;SDS011;8903;52.220;20.978;2023-04-07T01:17:41;65.20;;;31.57;;
17570;SDS011;8903;52.220;20.978;2023-04-07T01:20:11;60.33;;;31.40;;
17570;SDS011;8903;52.220;20.978;2023-04-07T01:22:44;65.00;;;32.03;;
17570;SDS011;8903;52.220;20.978;2023-04-07T01:25:26;65.47;;;32.47;;
17570;SDS011;8903;52.220;20.978;2023-04-07T01:28:07;71.10;;;35.30;;
17570;SDS011;8903;52.220;20.978;2023-04-07T01:30:42;72.77;;;35.30;;
17570;SDS011;8903;52.220;20.978;2023-04-07T01:33:10;68.30;;;32.63;;
17570;SDS011;8903;52.220;20.978;2023-04-07T01:35:40;60.80;;;34.17;;
17570;SDS011;8903;52.220;20.978;2023-04-07T01:38:09;78.30;;;36.17;;
17570;SDS011;8903;52.220;20.978;2023-04-07T01:40:37;83.10;;;35.80;;
17570;SDS011;8903;52.220;20.978;2023-04-07T01:43:05;72.47;;;35.03;;
17570;SDS011;8903;52.220;20.978;2023-04-07T01:45:33;94.87;;;37.37;;
17570;SDS011;8903;52.220;20.978;2023-04-07T01:48:03;84.63;;;36.97;;
17570;SDS011;8903;52.220;20.978;2023-04-07T01:50:31;75.97;;;36.50;;
17570;SDS011;8903;52.220;20.978;2023-04-07T01:52:59;84.37;;;35.70;;
17570;SDS011;8903;52.220;20.978;2023-04-07T01:55:28;80.70;;;37.63;;
17570;SDS011;8903;52.220;20.978;2023-04-07T01:58:05;80.10;;;35.20;;
17570;SDS011;8903;52.220;20.978;2023-04-07T02:00:35;78.77;;;38.07;;
17570;SDS011;8903;52.220;20.978;2023-04-07T02:03:10;83.17;;;36.70;;
17570;SDS011;8903;52.220;20.978;2023-04-07T02:05:46;88.53;;;38.10;;
17570;SDS011;8903;52.220;20.978;2023-04-07T02:08:15;90.60;;;39.67;;
17570;SDS011;8903;52.220;20.978;2023-04-07T02:10:46;86.50;;;39.73;;
17570;SDS011;8903;52.220;20.978;2023-04-07T02:13:15;89.83;;;40.93;;
17570;SDS011;8903;52.220;20.978;2023-04-07T02:15:45;84.23;;;38.20;;
17570;SDS011;8903;52.220;20.978;2023-04-07T02:18:18;83.50;;;39.70;;
17570;SDS011;8903;52.220;20.978;2023-04-07T02:20:46;89.00;;;41.03;;
17570;SDS011;8903;52.220;20.978;2023-04-07T02:23:14;83.50;;;42.00;;
17570;SDS011;8903;52.220;20.978;2023-04-07T02:25:41;77.33;;;39.00;;
17570;SDS011;8903;52.220;20.978;2023-04-07T02:28:08;100.63;;;42.70;;
17570;SDS011;8903;52.220;20.978;2023-04-07T02:30:35;85.73;;;39.67;;
17570;SDS011;8903;52.220;20.978;2023-04-07T02:33:02;100.83;;;44.63;;
17570;SDS011;8903;52.220;20.978;2023-04-07T02:35:31;87.13;;;41.67;;
17570;SDS011;8903;52.220;20.978;2023-04-07T02:38:00;98.93;;;41.50;;
17570;SDS011;8903;52.220;20.978;2023-04-07T02:40:27;93.57;;;43.50;;
17570;SDS011;8903;52.220;20.978;2023-04-07T02:42:54;91.07;;;42.50;;
17570;SDS011;8903;52.220;20.978;2023-04-07T02:45:21;94.10;;;42.97;;
17570;SDS011;8903;52.220;20.978;2023-04-07T02:47:48;97.87;;;42.40;;
17570;SDS011;8903;52.220;20.978;2023-04-07T02:50:16;90.40;;;41.17;;
17570;SDS011;8903;52.220;20.978;2023-04-07T02:52:44;90.70;;;43.73;;
17570;SDS011;8903;52.220;20.978;2023-04-07T02:55:13;85.73;;;41.87;;
17570;SDS011;8903;52.220;20.978;2023-04-07T02:57:41;91.27;;;43.50;;
17570;SDS011;8903;52.220;20.978;2023-04-07T03:00:22;94.73;;;40.73;;
17570;SDS011;8903;52.220;20.978;2023-04-07T03:03:03;95.67;;;42.17;;
17570;SDS011;8903;52.220;20.978;2023-04-07T03:05:34;85.60;;;43.50;;
17570;SDS011;8903;52.220;20.978;2023-04-07T03:08:04;99.70;;;40.67;;
17570;SDS011;8903;52.220;20.978;2023-04-07T03:10:31;90.27;;;42.10;;
17570;SDS011;8903;52.220;20.978;2023-04-07T03:12:58;99.93;;;44.27;;
17570;SDS011;8903;52.220;20.978;2023-04-07T03:15:26;92.10;;;42.30;;
17570;SDS011;8903;52.220;20.978;2023-04-07T03:17:54;96.53;;;44.27;;
17570;SDS011;8903;52.220;20.978;2023-04-07T03:20:21;105.43;;;45.03;;
17570;SDS011;8903;52.220;20.978;2023-04-07T03:22:48;96.30;;;44.00;;
17570;SDS011;8903;52.220;20.978;2023-04-07T03:25:25;96.90;;;44.47;;
17570;SDS011;8903;52.220;20.978;2023-04-07T03:27:53;107.20;;;46.33;;
17570;SDS011;8903;52.220;20.978;2023-04-07T03:30:21;95.03;;;45.73;;
17570;SDS011;8903;52.220;20.978;2023-04-07T03:32:48;106.43;;;45.80;;
17570;SDS011;8903;52.220;20.978;2023-04-07T03:35:15;103.17;;;44.40;;
17570;SDS011;8903;52.220;20.978;2023-04-07T03:37:43;107.13;;;48.27;;
17570;SDS011;8903;52.220;20.978;2023-04-07T03:40:14;107.90;;;46.20;;
17570;SDS011;8903;52.220;20.978;2023-04-07T03:42:44;114.53;;;48.53;;
17570;SDS011;8903;52.220;20.978;2023-04-07T03:45:12;108.40;;;46.93;;
17570;SDS011;8903;52.220;20.978;2023-04-07T03:47:44;96.93;;;45.10;;
17570;SDS011;8903;52.220;20.978;2023-04-07T03:50:13;97.23;;;45.53;;
17570;SDS011;8903;52.220;20.978;2023-04-07T03:53:09;106.03;;;46.07;;
17570;SDS011;8903;52.220;20.978;2023-04-07T03:55:38;122.40;;;48.40;;
17570;SDS011;8903;52.220;20.978;2023-04-07T03:58:13;102.93;;;46.83;;
17570;SDS011;8903;52.220;20.978;2023-04-07T04:00:44;106.80;;;47.63;;
17570;SDS011;8903;52.220;20.978;2023-04-07T04:03:11;94.50;;;47.10;;
17570;SDS011;8903;52.220;20.978;2023-04-07T04:05:55;101.73;;;44.80;;
17570;SDS011;8903;52.220;20.978;2023-04-07T04:08:26;112.80;;;49.03;;
17570;SDS011;8903;52.220;20.978;2023-04-07T04:10:54;101.93;;;49.10;;
17570;SDS011;8903;52.220;20.978;2023-04-07T04:13:25;113.80;;;47.53;;
17570;SDS011;8903;52.220;20.978;2023-04-07T04:15:54;100.87;;;48.40;;
17570;SDS011;8903;52.220;20.978;2023-04-07T04:18:21;105.13;;;44.40;;
17570;SDS011;8903;52.220;20.978;2023-04-07T04:20:50;94.00;;;44.03;;
17570;SDS011;8903;52.220;20.978;2023-04-07T04:23:18;98.17;;;45.07;;
17570;SDS011;8903;52.220;20.978;2023-04-07T04:25:46;94.50;;;44.70;;
17570;SDS011;8903;52.220;20.978;2023-04-07T04:28:13;93.47;;;44.53;;
17570;SDS011;8903;52.220;20.978;2023-04-07T04:30:42;85.50;;;44.83;;
17570;SDS011;8903;52.220;20.978;2023-04-07T04:33:09;93.70;;;43.37;;
17570;SDS011;8903;52.220;20.978;2023-04-07T04:35:45;95.60;;;46.10;;
17570;SDS011;8903;52.220;20.978;2023-04-07T04:38:18;100.63;;;44.30;;
17570;SDS011;8903;52.220;20.978;2023-04-07T04:40:53;89.13;;;43.77;;
17570;SDS011;8903;52.220;20.978;2023-04-07T04:43:25;100.87;;;46.17;;
17570;SDS011;8903;52.220;20.978;2023-04-07T04:45:55;90.87;;;45.30;;
17570;SDS011;8903;52.220;20.978;2023-04-07T04:48:25;88.70;;;45.33;;
17570;SDS011;8903;52.220;20.978;2023-04-07T04:50:52;103.10;;;46.83;;
17570;SDS011;8903;52.220;20.978;2023-04-07T04:53:20;95.83;;;46.33;;
17570;SDS011;8903;52.220;20.978;2023-04-07T04:55:52;98.87;;;46.20;;
17570;SDS011;8903;52.220;20.978;2023-04-07T04:58:23;98.33;;;47.00;;
17570;SDS011;8903;52.220;20.978;2023-04-07T05:00:55;90.90;;;47.33;;
17570;SDS011;8903;52.220;20.978;2023-04-07T05:03:30;91.90;;;49.07;;
17570;SDS011;8903;52.220;20.978;2023-04-07T05:06:01;101.00;;;47.37;;
17570;SDS011;8903;52.220;20.978;2023-04-07T05:08:28;95.40;;;49.17;;
17570;SDS011;8903;52.220;20.978;2023-04-07T05:10:56;97.10;;;48.33;;
17570;SDS011;8903;52.220;20.978;2023-04-07T05:13:26;103.23;;;49.40;;
17570;SDS011;8903;52.220;20.978;2023-04-07T05:16:00;95.83;;;46.97;;
17570;SDS011;8903;52.220;20.978;2023-04-07T05:18:28;82.80;;;45.53;;
17570;SDS011;8903;52.220;20.978;2023-04-07T05:20:56;99.37;;;49.93;;
17570;SDS011;8903;52.220;20.978;2023-04-07T05:23:25;93.37;;;45.73;;
17570;SDS011;8903;52.220;20.978;2023-04-07T05:25:53;97.20;;;47.77;;
17570;SDS011;8903;52.220;20.978;2023-04-07T05:28:20;99.70;;;47.90;;
17570;SDS011;8903;52.220;20.978;2023-04-07T05:30:49;97.50;;;48.40;;
17570;SDS011;8903;52.220;20.978;2023-04-07T05:33:24;93.50;;;46.70;;
17570;SDS011;8903;52.220;20.978;2023-04-07T05:35:52;96.83;;;46.50;;
17570;SDS011;8903;52.220;20.978;2023-04-07T05:38:19;100.43;;;48.60;;
17570;SDS011;8903;52.220;20.978;2023-04-07T05:40:47;92.70;;;48.40;;
17570;SDS011;8903;52.220;20.978;2023-04-07T05:43:23;93.23;;;46.33;;
17570;SDS011;8903;52.220;20.978;2023-04-07T05:45:50;87.13;;;46.00;;
17570;SDS011;8903;52.220;20.978;2023-04-07T05:48:17;100.27;;;47.20;;
17570;SDS011;8903;52.220;20.978;2023-04-07T05:50:47;91.53;;;46.87;;
17570;SDS011;8903;52.220;20.978;2023-04-07T05:53:16;93.87;;;46.23;;
17570;SDS011;8903;52.220;20.978;2023-04-07T05:55:44;86.57;;;47.03;;
17570;SDS011;8903;52.220;20.978;2023-04-07T05:58:19;89.80;;;46.50;;
17570;SDS011;8903;52.220;20.978;2023-04-07T06:00:50;94.53;;;48.67;;
17570;SDS011;8903;52.220;20.978;2023-04-07T06:03:17;83.50;;;46.53;;
17570;SDS011;8903;52.220;20.978;2023-04-07T06:06:08;90.10;;;48.47;;
17570;SDS011;8903;52.220;20.978;2023-04-07T06:08:35;88.13;;;48.37;;
17570;SDS011;8903;52.220;20.978;2023-04-07T06:11:02;84.17;;;48.10;;
17570;SDS011;8903;52.220;20.978;2023-04-07T06:13:29;82.60;;;46.30;;
17570;SDS011;8903;52.220;20.978;2023-04-07T06:15:56;78.97;;;46.50;;
17570;SDS011;8903;52.220;20.978;2023-04-07T06:18:23;80.13;;;46.37;;
17570;SDS011;8903;52.220;20.978;2023-04-07T06:20:50;78.53;;;44.00;;
17570;SDS011;8903;52.220;20.978;2023-04-07T06:23:19;85.70;;;45.30;;
17570;SDS011;8903;52.220;20.978;2023-04-07T06:25:46;80.87;;;45.90;;
17570;SDS011;8903;52.220;20.978;2023-04-07T06:28:16;76.33;;;42.47;;
17570;SDS011;8903;52.220;20.978;2023-04-07T06:30:43;70.63;;;45.33;;
17570;SDS011;8903;52.220;20.978;2023-04-07T06:33:12;74.33;;;44.60;;
17570;SDS011;8903;52.220;20.978;2023-04-07T06:35:39;71.40;;;42.50;;
17570;SDS011;8903;52.220;20.978;2023-04-07T06:38:06;70.77;;;43.03;;
17570;SDS011;8903;52.220;20.978;2023-04-07T06:40:37;75.53;;;42.10;;
17570;SDS011;8903;52.220;20.978;2023-04-07T06:43:04;76.63;;;44.07;;
17570;SDS011;8903;52.220;20.978;2023-04-07T06:45:41;74.77;;;44.57;;
17570;SDS011;8903;52.220;20.978;2023-04-07T06:48:08;70.93;;;43.90;;
17570;SDS011;8903;52.220;20.978;2023-04-07T06:50:36;75.80;;;43.83;;
17570;SDS011;8903;52.220;20.978;2023-04-07T06:53:03;70.03;;;44.83;;
17570;SDS011;8903;52.220;20.978;2023-04-07T06:55:30;83.53;;;47.20;;
17570;SDS011;8903;52.220;20.978;2023-04-07T06:57:58;81.47;;;46.90;;
17570;SDS011;8903;52.220;20.978;2023-04-07T07:00:25;70.00;;;43.80;;
17570;SDS011;8903;52.220;20.978;2023-04-07T07:02:54;73.13;;;45.20;;
17570;SDS011;8903;52.220;20.978;2023-04-07T07:05:21;70.30;;;44.60;;
17570;SDS011;8903;52.220;20.978;2023-04-07T07:07:48;76.83;;;47.37;;
17570;SDS011;8903;52.220;20.978;2023-04-07T07:10:15;77.93;;;46.80;;
17570;SDS011;8903;52.220;20.978;2023-04-07T07:12:44;68.50;;;42.80;;
17570;SDS011;8903;52.220;20.978;2023-04-07T07:15:12;77.83;;;45.20;;
17570;SDS011;8903;52.220;20.978;2023-04-07T07:17:40;73.10;;;45.37;;
17570;SDS011;8903;52.220;20.978;2023-04-07T07:20:07;65.50;;;41.23;;
17570;SDS011;8903;52.220;20.978;2023-04-07T07:22:35;73.73;;;44.90;;
17570;SDS011;8903;52.220;20.978;2023-04-07T07:25:02;64.13;;;41.93;;
17570;SDS011;8903;52.220;20.978;2023-04-07T07:27:29;65.20;;;42.90;;
17570;SDS011;8903;52.220;20.978;2023-04-07T07:29:56;63.73;;;42.60;;
17570;SDS011;8903;52.220;20.978;2023-04-07T07:32:25;67.00;;;40.77;;
17570;SDS011;8903;52.220;20.978;2023-04-07T07:34:51;58.40;;;40.67;;
17570;SDS011;8903;52.220;20.978;2023-04-07T07:37:18;62.20;;;41.63;;
17570;SDS011;8903;52.220;20.978;2023-04-07T07:39:45;72.20;;;42.40;;
17570;SDS011;8903;52.220;20.978;2023-04-07T07:42:12;63.13;;;41.93;;
17570;SDS011;8903;52.220;20.978;2023-04-07T07:44:39;57.93;;;39.97;;
17570;SDS011;8903;52.220;20.978;2023-04-07T07:47:06;56.00;;;38.77;;
17570;SDS011;8903;52.220;20.978;2023-04-07T07:49:35;66.40;;;41.47;;
17570;SDS011;8903;52.220;20.978;2023-04-07T07:52:03;54.50;;;39.20;;
17570;SDS011;8903;52.220;20.978;2023-04-07T07:54:30;55.00;;;39.00;;
17570;SDS011;8903;52.220;20.978;2023-04-07T07:56:57;53.43;;;38.60;;
17570;SDS011;8903;52.220;20.978;2023-04-07T07:59:24;53.80;;;38.50;;
17570;SDS011;8903;52.220;20.978;2023-04-07T08:01:51;57.70;;;38.07;;
17570;SDS011;8903;52.220;20.978;2023-04-07T08:04:18;54.50;;;38.30;;
17570;SDS011;8903;52.220;20.978;2023-04-07T08:06:48;50.30;;;37.20;;
17570;SDS011;8903;52.220;20.978;2023-04-07T08:09:16;65.40;;;38.73;;
17570;SDS011;8903;52.220;20.978;2023-04-07T08:11:43;46.67;;;37.80;;
17570;SDS011;8903;52.220;20.978;2023-04-07T08:14:12;54.67;;;38.60;;
17570;SDS011;8903;52.220;20.978;2023-04-07T08:16:39;47.20;;;34.70;;
17570;SDS011;8903;52.220;20.978;2023-04-07T08:19:06;53.87;;;36.07;;
17570;SDS011;8903;52.220;20.978;2023-04-07T08:21:33;49.60;;;34.70;;
17570;SDS011;8903;52.220;20.978;2023-04-07T08:24:01;49.37;;;35.83;;
17570;SDS011;8903;52.220;20.978;2023-04-07T08:26:28;49.30;;;34.13;;
17570;SDS011;8903;52.220;20.978;2023-04-07T08:28:55;46.70;;;34.43;;
17570;SDS011;8903;52.220;20.978;2023-04-07T08:31:22;52.70;;;33.00;;
17570;SDS011;8903;52.220;20.978;2023-04-07T08:33:50;42.20;;;31.77;;
17570;SDS011;8903;52.220;20.978;2023-04-07T08:36:18;41.33;;;31.30;;
17570;SDS011;8903;52.220;20.978;2023-04-07T08:38:45;39.70;;;31.10;;
17570;SDS011;8903;52.220;20.978;2023-04-07T08:41:16;40.43;;;31.57;;
17570;SDS011;8903;52.220;20.978;2023-04-07T08:43:47;39.20;;;29.23;;
17570;SDS011;8903;52.220;20.978;2023-04-07T08:46:15;33.63;;;28.13;;
17570;SDS011;8903;52.220;20.978;2023-04-07T08:48:47;42.83;;;29.17;;
17570;SDS011;8903;52.220;20.978;2023-04-07T08:51:18;34.47;;;28.70;;
17570;SDS011;8903;52.220;20.978;2023-04-07T08:53:52;37.53;;;28.30;;
17570;SDS011;8903;52.220;20.978;2023-04-07T08:56:24;30.43;;;26.87;;
17570;SDS011;8903;52.220;20.978;2023-04-07T08:58:52;37.90;;;28.10;;
17570;SDS011;8903;52.220;20.978;2023-04-07T09:01:20;33.60;;;26.47;;
17570;SDS011;8903;52.220;20.978;2023-04-07T09:03:49;36.53;;;24.77;;
17570;SDS011;8903;52.220;20.978;2023-04-07T09:06:16;31.63;;;26.20;;
17570;SDS011;8903;52.220;20.978;2023-04-07T09:08:43;40.90;;;28.50;;
17570;SDS011;8903;52.220;20.978;2023-04-07T09:11:10;34.37;;;26.10;;
17570;SDS011;8903;52.220;20.978;2023-04-07T09:13:38;34.93;;;27.40;;
17570;SDS011;8903;52.220;20.978;2023-04-07T09:16:06;35.40;;;27.50;;
17570;SDS011;8903;52.220;20.978;2023-04-07T09:18:33;32.30;;;26.83;;
17570;SDS011;8903;52.220;20.978;2023-04-07T09:21:00;32.20;;;25.43;;
17570;SDS011;8903;52.220;20.978;2023-04-07T09:23:29;36.87;;;27.10;;
17570;SDS011;8903;52.220;20.978;2023-04-07T09:25:57;35.13;;;25.83;;
17570;SDS011;8903;52.220;20.978;2023-04-07T09:28:37;33.30;;;25.80;;
17570;SDS011;8903;52.220;20.978;2023-04-07T09:31:07;34.40;;;25.37;;
17570;SDS011;8903;52.220;20.978;2023-04-07T09:33:34;30.00;;;24.30;;
17570;SDS011;8903;52.220;20.978;2023-04-07T09:36:01;30.60;;;26.20;;
17570;SDS011;8903;52.220;20.978;2023-04-07T09:38:32;33.30;;;25.47;;
17570;SDS011;8903;52.220;20.978;2023-04-07T09:41:06;33.17;;;25.20;;
17570;SDS011;8903;52.220;20.978;2023-04-07T09:43:35;29.20;;;24.30;;
17570;SDS011;8903;52.220;20.978;2023-04-07T09:46:09;28.00;;;24.90;;
17570;SDS011;8903;52.220;20.978;2023-04-07T09:48:37;30.53;;;24.30;;
17570;SDS011;8903;52.220;20.978;2023-04-07T09:51:04;27.37;;;23.87;;
17570;SDS011;8903;52.220;20.978;2023-04-07T09:53:43;30.90;;;24.73;;
17570;SDS011;8903;52.220;20.978;2023-04-07T09:56:12;31.53;;;25.00;;
17570;SDS011;8903;52.220;20.978;2023-04-07T09:58:42;40.63;;;24.37;;
17570;SDS011;8903;52.220;20.978;2023-04-07T10:01:11;27.17;;;23.53;;
17570;SDS011;8903;52.220;20.978;2023-04-07T10:03:39;35.97;;;25.87;;
17570;SDS011;8903;52.220;20.978;2023-04-07T10:06:07;37.43;;;25.87;;
17570;SDS011;8903;52.220;20.978;2023-04-07T10:08:36;32.00;;;24.97;;
17570;SDS011;8903;52.220;20.978;2023-04-07T10:11:05;31.37;;;25.77;;
17570;SDS011;8903;52.220;20.978;2023-04-07T10:13:33;29.93;;;26.33;;
17570;SDS011;8903;52.220;20.978;2023-04-07T10:16:02;29.20;;;25.10;;
17570;SDS011;8903;52.220;20.978;2023-04-07T10:18:31;31.90;;;25.30;;
17570;SDS011;8903;52.220;20.978;2023-04-07T10:21:01;31.70;;;22.60;;
17570;SDS011;8903;52.220;20.978;2023-04-07T10:23:31;26.40;;;23.50;;
17570;SDS011;8903;52.220;20.978;2023-04-07T10:26:08;26.10;;;23.30;;
17570;SDS011;8903;52.220;20.978;2023-04-07T10:28:37;30.97;;;25.70;;
17570;SDS011;8903;52.220;20.978;2023-04-07T10:31:08;25.93;;;22.93;;
17570;SDS011;8903;52.220;20.978;2023-04-07T10:33:47;28.03;;;24.63;;
17570;SDS011;8903;52.220;20.978;2023-04-07T10:36:16;30.40;;;25.37;;
17570;SDS011;8903;52.220;20.978;2023-04-07T10:41:45;25.93;;;23.23;;
17570;SDS011;8903;52.220;20.978;2023-04-07T10:47:24;27.13;;;23.67;;
17570;SDS011;8903;52.220;20.978;2023-04-07T10:52:43;28.13;;;21.63;;
17570;SDS011;8903;52.220;20.978;2023-04-07T10:58:18;25.40;;;20.77;;
17570;SDS011;8903;52.220;20.978;2023-04-07T11:03:51;25.90;;;21.87;;
17570;SDS011;8903;52.220;20.978;2023-04-07T11:06:22;24.60;;;20.07;;
17570;SDS011;8903;52.220;20.978;2023-04-07T11:08:50;26.43;;;22.70;;
17570;SDS011;8903;52.220;20.978;2023-04-07T11:11:33;22.20;;;19.03;;
17570;SDS011;8903;52.220;20.978;2023-04-07T11:14:04;27.30;;;20.40;;
17570;SDS011;8903;52.220;20.978;2023-04-07T11:16:39;24.07;;;20.37;;
17570;SDS011;8903;52.220;20.978;2023-04-07T11:19:07;24.70;;;21.13;;
17570;SDS011;8903;52.220;20.978;2023-04-07T11:21:36;22.17;;;19.90;;
17570;SDS011;8903;52.220;20.978;2023-04-07T11:24:03;26.00;;;18.83;;
17570;SDS011;8903;52.220;20.978;2023-04-07T11:26:35;21.97;;;19.03;;
17570;SDS011;8903;52.220;20.978;2023-04-07T11:37:47;20.30;;;17.27;;
17570;SDS011;8903;52.220;20.978;2023-04-07T11:40:29;22.70;;;19.30;;
17570;SDS011;8903;52.220;20.978;2023-04-07T11:42:58;20.90;;;18.23;;
17570;SDS011;8903;52.220;20.978;2023-04-07T11:45:26;24.63;;;17.67;;
17570;SDS011;8903;52.220;20.978;2023-04-07T11:47:53;19.50;;;17.00;;
17570;SDS011;8903;52.220;20.978;2023-04-07T11:53:07;25.20;;;19.40;;
17570;SDS011;8903;52.220;20.978;2023-04-07T11:55:35;21.83;;;19.53;;
17570;SDS011;8903;52.220;20.978;2023-04-07T11:58:05;22.80;;;18.80;;
17570;SDS011;8903;52.220;20.978;2023-04-07T12:00:34;29.90;;;19.17;;
17570;SDS011;8903;52.220;20.978;2023-04-07T12:03:08;19.30;;;16.70;;
17570;SDS011;8903;52.220;20.978;2023-04-07T12:05:42;21.13;;;17.33;;
17570;SDS011;8903;52.220;20.978;2023-04-07T12:08:11;21.97;;;18.63;;
17570;SDS011;8903;52.220;20.978;2023-04-07T12:10:40;21.77;;;19.47;;
17570;SDS011;8903;52.220;20.978;2023-04-07T12:13:07;24.50;;;19.87;;
17570;SDS011;8903;52.220;20.978;2023-04-07T12:15:35;28.80;;;21.60;;
17570;SDS011;8903;52.220;20.978;2023-04-07T12:18:02;24.83;;;22.20;;
17570;SDS011;8903;52.220;20.978;2023-04-07T12:20:30;23.97;;;20.03;;
17570;SDS011;8903;52.220;20.978;2023-04-07T12:23:00;23.47;;;19.67;;
17570;SDS011;8903;52.220;20.978;2023-04-07T12:25:28;24.63;;;21.70;;
17570;SDS011;8903;52.220;20.978;2023-04-07T12:27:56;22.83;;;19.93;;
17570;SDS011;8903;52.220;20.978;2023-04-07T12:30:23;23.00;;;19.70;;
17570;SDS011;8903;52.220;20.978;2023-04-07T12:32:50;27.13;;;20.30;;
17570;SDS011;8903;52.220;20.978;2023-04-07T12:35:17;22.13;;;19.83;;
17570;SDS011;8903;52.220;20.978;2023-04-07T12:37:48;21.17;;;19.07;;
17570;SDS011;8903;52.220;20.978;2023-04-07T12:40:16;21.93;;;18.63;;
17570;SDS011;8903;52.220;20.978;2023-04-07T12:42:45;29.43;;;19.77;;
17570;SDS011;8903;52.220;20.978;2023-04-07T12:45:12;22.37;;;19.77;;
17570;SDS011;8903;52.220;20.978;2023-04-07T12:47:39;22.73;;;19.87;;
17570;SDS011;8903;52.220;20.978;2023-04-07T12:50:06;20.63;;;17.77;;
17570;SDS011;8903;52.220;20.978;2023-04-07T12:52:34;14.13;;;12.63;;
17570;SDS011;8903;52.220;20.978;2023-04-07T12:55:00;15.73;;;11.63;;
17570;SDS011;8903;52.220;20.978;2023-04-07T12:57:28;11.57;;;10.37;;
17570;SDS011;8903;52.220;20.978;2023-04-07T12:59:56;11.37;;;10.20;;
17570;SDS011;8903;52.220;20.978;2023-04-07T13:02:24;10.70;;;9.57;;
17570;SDS011;8903;52.220;20.978;2023-04-07T13:04:51;8.00;;;7.20;;
17570;SDS011;8903;52.220;20.978;2023-04-07T13:07:18;7.20;;;6.50;;
17570;SDS011;8903;52.220;20.978;2023-04-07T13:09:48;7.90;;;5.27;;
17570;SDS011;8903;52.220;20.978;2023-04-07T13:12:15;7.33;;;5.30;;
17570;SDS011;8903;52.220;20.978;2023-04-07T13:14:42;6.97;;;4.13;;
17570;SDS011;8903;52.220;20.978;2023-04-07T13:17:11;5.20;;;4.70;;
17570;SDS011;8903;52.220;20.978;2023-04-07T13:19:38;7.33;;;3.60;;
17570;SDS011;8903;52.220;20.978;2023-04-07T13:22:05;5.20;;;4.17;;
17570;SDS011;8903;52.220;20.978;2023-04-07T13:24:32;6.13;;;3.97;;
17570;SDS011;8903;52.220;20.978;2023-04-07T13:26:59;3.30;;;2.83;;
17570;SDS011;8903;52.220;20.978;2023-04-07T13:29:27;4.17;;;3.53;;
17570;SDS011;8903;52.220;20.978;2023-04-07T13:32:03;3.50;;;3.20;;
17570;SDS011;8903;52.220;20.978;2023-04-07T13:34:32;4.03;;;3.33;;
17570;SDS011;8903;52.220;20.978;2023-04-07T13:37:00;4.87;;;3.77;;
17570;SDS011;8903;52.220;20.978;2023-04-07T13:39:27;3.87;;;3.53;;
17570;SDS011;8903;52.220;20.978;2023-04-07T13:41:55;4.73;;;4.20;;
17570;SDS011;8903;52.220;20.978;2023-04-07T13:44:22;5.17;;;3.87;;
17570;SDS011;8903;52.220;20.978;2023-04-07T13:46:50;3.20;;;2.90;;
17570;SDS011;8903;52.220;20.978;2023-04-07T13:49:17;3.87;;;3.50;;
17570;SDS011;8903;52.220;20.978;2023-04-07T13:51:46;4.23;;;3.43;;
17570;SDS011;8903;52.220;20.978;2023-04-07T13:54:14;6.63;;;4.13;;
17570;SDS011;8903;52.220;20.978;2023-04-07T13:56:42;4.10;;;3.60;;
17570;SDS011;8903;52.220;20.978;2023-04-07T13:59:09;5.57;;;4.00;;
17570;SDS011;8903;52.220;20.978;2023-04-07T14:01:36;3.83;;;3.43;;
17570;SDS011;8903;52.220;20.978;2023-04-07T14:04:04;6.87;;;3.33;;
17570;SDS011;8903;52.220;20.978;2023-04-07T14:06:34;3.80;;;3.40;;
17570;SDS011;8903;52.220;20.978;2023-04-07T14:09:03;9.67;;;3.87;;
17570;SDS011;8903;52.220;20.978;2023-04-07T14:11:32;4.07;;;3.20;;
17570;SDS011;8903;52.220;20.978;2023-04-07T14:13:59;5.77;;;3.73;;
17570;SDS011;8903;52.220;20.978;2023-04-07T14:16:27;4.07;;;3.50;;
17570;SDS011;8903;52.220;20.978;2023-04-07T14:18:54;4.60;;;3.40;;
17570;SDS011;8903;52.220;20.978;2023-04-07T14:21:22;4.80;;;3.70;;
17570;SDS011;8903;52.220;20.978;2023-04-07T14:23:51;6.50;;;3.70;;
17570;SDS011;8903;52.220;20.978;2023-04-07T14:26:20;5.20;;;3.20;;
17570;SDS011;8903;52.220;20.978;2023-04-07T14:28:47;3.60;;;3.00;;
17570;SDS011;8903;52.220;20.978;2023-04-07T14:31:15;4.63;;;4.00;;
17570;SDS011;8903;52.220;20.978;2023-04-07T14:33:43;5.30;;;3.27;;
17570;SDS011;8903;52.220;20.978;2023-04-07T14:36:12;3.87;;;3.40;;
17570;SDS011;8903;52.220;20.978;2023-04-07T14:38:41;2.87;;;2.67;;
17570;SDS011;8903;52.220;20.978;2023-04-07T14:41:08;3.40;;;2.50;;
17570;SDS011;8903;52.220;20.978;2023-04-07T14:43:37;4.67;;;3.10;;
17570;SDS011;8903;52.220;20.978;2023-04-07T14:46:05;4.73;;;3.33;;
17570;SDS011;8903;52.220;20.978;2023-04-07T14:48:32;5.43;;;2.90;;
17570;SDS011;8903;52.220;20.978;2023-04-07T14:50:59;3.00;;;2.70;;
17570;SDS011;8903;52.220;20.978;2023-04-07T14:53:27;4.20;;;3.47;;
17570;SDS011;8903;52.220;20.978;2023-04-07T14:55:54;6.07;;;3.10;;
17570;SDS011;8903;52.220;20.978;2023-04-07T14:58:21;4.70;;;3.10;;
17570;SDS011;8903;52.220;20.978;2023-04-07T15:00:50;5.23;;;3.70;;